createdAt,value
2022-11-07T00:00:37.347Z,84.51
2022-11-07T00:10:41.227Z,84.72
2022-11-07T00:20:44.919Z,84.61
2022-11-07T00:30:48.652Z,84.23
2022-11-07T00:40:56.617Z,84.07
2022-11-07T00:51:10.738Z,84.55
2022-11-07T01:01:24.113Z,85.02
2022-11-07T01:11:29.920Z,85.71
2022-11-07T01:21:33.775Z,85.80
2022-11-07T01:31:37.456Z,86.44
2022-11-07T01:41:41.171Z,87.13
2022-11-07T01:52:03.093Z,87.09
2022-11-07T02:02:08.466Z,86.86
2022-11-07T02:12:13.707Z,86.95
2022-11-07T02:22:26.494Z,86.80
2022-11-07T02:32:30.346Z,87.55
2022-11-07T02:42:45.175Z,87.76
2022-11-07T02:52:48.740Z,87.76
2022-11-07T03:02:52.602Z,87.23
2022-11-07T03:12:56.370Z,86.67
2022-11-07T03:23:00.056Z,86.64
2022-11-07T03:33:03.901Z,86.73
2022-11-07T03:43:07.577Z,86.56
2022-11-07T03:53:11.174Z,86.27
2022-11-07T04:03:15.215Z,85.53
2022-11-07T04:13:38.021Z,85.27
2022-11-07T04:23:41.584Z,85.02
2022-11-07T04:33:45.556Z,85.00
2022-11-07T04:43:49.726Z,84.97
2022-11-07T04:53:53.296Z,85.61
2022-11-07T05:03:56.915Z,86.11
2022-11-07T05:14:00.728Z,86.24
2022-11-07T05:24:05.437Z,86.44
2022-11-07T05:34:14.347Z,87.00
2022-11-07T05:44:18.577Z,87.18
2022-11-07T05:54:22.654Z,87.75
2022-11-07T06:04:26.516Z,87.68
2022-11-07T06:14:30.490Z,87.41
2022-11-07T06:24:34.492Z,88.19
2022-11-07T06:34:38.246Z,89.34
2022-11-07T06:44:41.999Z,89.28
2022-11-07T06:54:45.790Z,89.54
2022-11-07T07:04:49.660Z,90.00
2022-11-07T07:14:53.712Z,89.60
2022-11-07T07:24:57.381Z,89.12
2022-11-07T07:35:01.251Z,88.65
2022-11-07T07:45:06.130Z,88.63
2022-11-07T07:55:10.736Z,89.06
2022-11-07T08:05:16.702Z,89.54
2022-11-07T08:15:22.051Z,89.19
2022-11-07T08:25:26.228Z,87.24
2022-11-07T08:35:32.184Z,84.43
2022-11-07T08:45:36.326Z,82.80
2022-11-07T08:55:40.820Z,80.89
2022-11-07T09:05:44.777Z,79.10
2022-11-07T09:15:51.376Z,77.67
2022-11-07T09:25:59.270Z,76.06
2022-11-07T09:36:05.677Z,73.78
2022-11-07T09:46:51.210Z,71.30
2022-11-07T09:56:59.489Z,70.37
2022-11-07T10:07:11.252Z,69.02
2022-11-07T10:17:24.003Z,67.11
2022-11-07T10:27:28.604Z,64.95
2022-11-07T10:37:32.799Z,63.61
2022-11-07T10:47:36.711Z,63.83
2022-11-07T10:57:40.708Z,62.21
2022-11-07T11:07:44.395Z,63.17
2022-11-07T11:17:59.257Z,63.73
2022-11-07T11:28:10.032Z,63.89
2022-11-07T11:38:25.866Z,63.59
2022-11-07T11:48:48.577Z,63.00
2022-11-07T11:59:20.794Z,63.24
2022-11-07T12:09:38.272Z,63.15
2022-11-07T12:19:55.964Z,63.02
2022-11-07T12:30:24.967Z,62.53
2022-11-07T12:40:32.551Z,62.67
2022-11-07T12:50:56.778Z,62.30
2022-11-07T13:01:02.255Z,62.59
2022-11-07T13:11:18.044Z,62.93
2022-11-07T13:21:22.625Z,63.57
2022-11-07T13:31:39.707Z,64.31
2022-11-07T13:41:45.304Z,65.21
2022-11-07T13:51:52.064Z,65.20
2022-11-07T14:01:58.011Z,65.59
2022-11-07T14:12:02.338Z,65.80
2022-11-07T14:22:09.775Z,65.82
2022-11-07T14:32:17.521Z,66.47
2022-11-07T14:42:24.309Z,67.65
2022-11-07T14:52:48.715Z,68.53
2022-11-07T15:02:55.657Z,69.16
2022-11-07T15:13:03.103Z,69.88
2022-11-07T15:23:15.746Z,70.12
2022-11-07T15:33:20.719Z,70.37
2022-11-07T15:43:24.739Z,70.46
2022-11-07T15:53:30.141Z,70.97
2022-11-07T16:03:33.821Z,71.44
2022-11-07T16:13:39.300Z,72.25
2022-11-07T16:23:45.546Z,72.85
2022-11-07T16:33:49.517Z,73.38
2022-11-07T16:43:53.349Z,74.53
2022-11-07T16:53:57.257Z,75.30
2022-11-07T17:04:04.984Z,75.64
2022-11-07T17:14:09.720Z,76.55
2022-11-07T17:24:15.106Z,76.74
2022-11-07T17:34:22.058Z,77.42
2022-11-07T17:44:26.662Z,78.07
2022-11-07T17:54:31.635Z,78.30
2022-11-07T18:04:35.921Z,78.24
2022-11-07T18:14:43.025Z,78.58
2022-11-07T18:24:48.251Z,78.91
2022-11-07T18:34:53.786Z,79.35
2022-11-07T18:44:58.964Z,79.41
2022-11-07T18:55:03.661Z,79.92
2022-11-07T19:05:09.918Z,80.30
2022-11-07T19:15:15.422Z,81.03
2022-11-07T19:25:22.527Z,81.37
2022-11-07T19:35:28.467Z,81.05
2022-11-07T19:45:33.558Z,81.65
2022-11-07T19:55:40.684Z,82.29
2022-11-07T20:05:46.811Z,82.00
2022-11-07T20:15:52.826Z,82.25
2022-11-07T20:25:58.863Z,82.80
2022-11-07T20:36:08.210Z,82.73
2022-11-07T20:46:16.266Z,82.83
2022-11-07T20:56:24.100Z,83.17
2022-11-07T21:06:28.676Z,84.02
2022-11-07T21:16:41.183Z,84.37
2022-11-07T21:26:46.030Z,84.09
2022-11-07T21:36:49.879Z,83.89
2022-11-07T21:46:54.165Z,84.38
2022-11-07T21:56:58.546Z,84.51
2022-11-07T22:07:02.738Z,84.45
2022-11-07T22:17:06.695Z,84.75
2022-11-07T22:27:10.876Z,85.09
2022-11-07T22:37:14.758Z,85.32
2022-11-07T22:47:18.826Z,85.84
2022-11-07T22:57:22.696Z,85.90
2022-11-07T23:07:26.552Z,86.60
2022-11-07T23:17:31.759Z,86.48
2022-11-07T23:27:35.526Z,86.53
2022-11-07T23:37:40.093Z,85.93
2022-11-07T23:48:03.328Z,85.61
2022-11-07T23:58:26.938Z,85.42
